Shtandart — UAEM — position and weather

sailwx.info

Track history (hours):
 
Tides and Currents Weather Stations Pressure Air Temp Water Temp Dewpoint Dewpoint Depression Visibility Wind Speed Wind Dir Waves Ship Positions

Shtandart

Re-creation of early 1700's Russian naval frigate.

Last reported at 2019-Aug-24 07:28 UTC. Time now 2019-Aug-24 07:39 UTC.
Position N 59°27' E 024°46'.

Length 26 m; draft 3 m.

Type: Sailing vessel. MMSI: 273452840.

Date/timePositionNaut miles runAvg speedWind from/ knotsBaromVisibWave heightAir tempDewpointWater temp
2019-Aug-24 07:28N 59°27' E 024°46'0 0.0
2019-Aug-24 06:58N 59°27' E 024°46'0 0.0
2019-Aug-24 06:28N 59°27' E 024°46'0 0.0
2019-Aug-24 05:55N 59°27' E 024°46'0 0.0
2019-Aug-24 05:25N 59°27' E 024°46'0 0.0
2019-Aug-24 04:58N 59°27' E 024°46'0 0.0
2019-Aug-24 04:25N 59°27' E 024°46'0 0.0
2019-Aug-24 03:58N 59°27' E 024°46'0 0.0
2019-Aug-24 03:28N 59°27' E 024°46'0 0.0
2019-Aug-24 02:58N 59°27' E 024°46'0 0.0
2019-Aug-24 02:28N 59°27' E 024°46'0 0.0
2019-Aug-24 01:58N 59°27' E 024°46'0 0.0
2019-Aug-24 01:25N 59°27' E 024°46'0 0.0
2019-Aug-24 00:58N 59°27' E 024°46'0 0.0
2019-Aug-24 00:28N 59°27' E 024°46'0 0.0
2019-Aug-23 23:58N 59°27' E 024°46'0 0.0
2019-Aug-23 23:28N 59°27' E 024°46'0 0.0
2019-Aug-23 22:55N 59°27' E 024°46'0 0.0
2019-Aug-23 22:25N 59°27' E 024°46'0 0.0
2019-Aug-23 21:58N 59°27' E 024°46'0 0.0
2019-Aug-23 21:28N 59°27' E 024°46'0 0.0
2019-Aug-23 20:58N 59°27' E 024°46'0 0.0
2019-Aug-23 20:28N 59°27' E 024°46'0 0.0
2019-Aug-23 19:58N 59°27' E 024°46'0 0.0
2019-Aug-23 19:25N 59°27' E 024°46'0 0.0
2019-Aug-23 18:58N 59°27' E 024°46'0 0.0
2019-Aug-23 18:28N 59°27' E 024°46'0 0.0
2019-Aug-23 17:55N 59°27' E 024°46'0 0.0
2019-Aug-23 17:25N 59°27' E 024°46'0 0.0
2019-Aug-23 16:58N 59°27' E 024°46'0 0.0
2019-Aug-23 16:25N 59°27' E 024°46'0 0.0
2019-Aug-23 15:55N 59°27' E 024°46'0 0.0
2019-Aug-23 15:28N 59°27' E 024°46'0 0.0
2019-Aug-23 14:58N 59°27' E 024°46'0 0.0
2019-Aug-23 14:25N 59°27' E 024°46'0 0.0
2019-Aug-23 13:58N 59°27' E 024°46'0 0.0
2019-Aug-23 13:25N 59°27' E 024°46'0 0.0
2019-Aug-23 12:55N 59°27' E 024°46'0 0.0
2019-Aug-23 12:25N 59°27' E 024°46'0 0.0
2019-Aug-23 11:58N 59°27' E 024°46'0 0.0
2019-Aug-23 11:28N 59°27' E 024°46'0 0.0
2019-Aug-23 10:55N 59°27' E 024°46'0 0.0
2019-Aug-23 10:25N 59°27' E 024°46'0 0.0
2019-Aug-23 09:58N 59°27' E 024°46'0 0.0
2019-Aug-23 09:25N 59°27' E 024°46'0 0.0
2019-Aug-23 08:52N 59°27' E 024°46'0 0.0
2019-Aug-23 08:28N 59°27' E 024°46'0 0.0
2019-Aug-23 07:58N 59°27' E 024°46'0 0.0
2019-Aug-23 07:28N 59°27' E 024°46'0 0.0
2019-Aug-23 06:58N 59°27' E 024°46'0 0.0
2019-Aug-23 06:22N 59°27' E 024°46'0 0.0
2019-Aug-23 05:58N 59°27' E 024°46'0 0.0
2019-Aug-23 05:28N 59°27' E 024°46'0 0.0
2019-Aug-23 04:58N 59°27' E 024°46'0 0.0
2019-Aug-23 04:28N 59°27' E 024°46'0 0.0
2019-Aug-23 03:58N 59°27' E 024°46'0 0.0
2019-Aug-23 03:28N 59°27' E 024°46'0 0.0
2019-Aug-23 02:58N 59°27' E 024°46'0 0.0
2019-Aug-23 02:28N 59°27' E 024°46'0 0.0
2019-Aug-23 01:58N 59°27' E 024°46'0 0.0
2019-Aug-23 01:25N 59°27' E 024°46'0 0.0
2019-Aug-23 00:55N 59°27' E 024°46'0 0.0
2019-Aug-23 00:28N 59°27' E 024°46'0 0.0
2019-Aug-23 00:00N 59°27' E 024°46'2 3.4
2019-Aug-22 23:30N 59°28' E 024°46'2 3.9
2019-Aug-22 23:00N 59°30' E 024°43'3 5.5
2019-Aug-22 22:30N 59°30' E 024°38'3 6.1
2019-Aug-22 22:00N 59°30' E 024°32'3 6.0
2019-Aug-22 21:30N 59°30' E 024°26'3 6.1
2019-Aug-22 21:01N 59°29' E 024°20'3 6.4
2019-Aug-22 20:30N 59°30' E 024°14'3 6.4
2019-Aug-22 20:00N 59°30' E 024°07'4 7.0
2019-Aug-22 19:30N 59°30' E 024°00'11 7.0
2019-Aug-22 17:53N 59°33' E 023°39'4 7.2
2019-Aug-22 17:18N 59°33' E 023°30'2 7.4
2019-Aug-22 17:00N 59°34' E 023°26'4 7.3
2019-Aug-22 16:31N 59°34' E 023°19'4 7.4
2019-Aug-22 16:01N 59°34' E 023°12'4 7.1
2019-Aug-22 15:28N 59°34' E 023°04'3 6.7
2019-Aug-22 15:01N 59°34' E 022°58'9 6.6
2019-Aug-22 13:36N 59°35' E 022°40'1 5.9
2019-Aug-22 13:28N 59°35' E 022°38'5 5.5
2019-Aug-22 12:30N 59°34' E 022°28'4 5.0
2019-Aug-22 11:46N 59°33' E 022°21'2 5.7
2019-Aug-22 11:25N 59°33' E 022°17'2 5.6
2019-Aug-22 10:58N 59°33' E 022°12'3 5.7
2019-Aug-22 10:30N 59°34' E 022°06'3 5.5
2019-Aug-22 09:54N 59°34' E 021°60'2 5.3
2019-Aug-22 09:29N 59°34' E 021°56'2 5.0
2019-Aug-22 09:00N 59°35' E 021°51'3 5.1
2019-Aug-22 08:30N 59°35' E 021°46'2 4.7
2019-Aug-22 08:00N 59°35' E 021°41'2 4.8
2019-Aug-22 07:30N 59°36' E 021°37'3 5.3
2019-Aug-22 07:00N 59°37' E 021°32'3 5.1
2019-Aug-22 06:30N 59°38' E 021°27'3 5.4
2019-Aug-22 06:00N 59°39' E 021°22'2 4.9
2019-Aug-22 05:30N 59°40' E 021°18'2 4.8
2019-Aug-22 05:00N 59°41' E 021°14'2 4.2
2019-Aug-22 04:30N 59°41' E 021°10'2 4.3
2019-Aug-22 04:00N 59°42' E 021°05'2 3.7
2019-Aug-22 03:30N 59°42' E 021°02'2 4.0
2019-Aug-22 03:00N 59°42' E 020°58'26 4.7
2019-Aug-21 21:31N 59°50' E 020°09'3 5.1
2019-Aug-21 20:55N 59°52' E 020°03'11 0.8
2019-Aug-21 06:59N 60°01' E 019°52'4 3.8
2019-Aug-21 05:53N 59°58' E 019°46'2 4.5
2019-Aug-21 05:25N 59°57' E 019°43'2 4.2
2019-Aug-21 04:59N 59°55' E 019°41'2 4.1
2019-Aug-21 04:30N 59°54' E 019°38'2 4.1
2019-Aug-21 04:00N 59°52' E 019°35'2 3.7
2019-Aug-21 03:30N 59°51' E 019°33'2 3.5
2019-Aug-21 03:00N 59°50' E 019°31'2 3.3
2019-Aug-21 02:30N 59°48' E 019°28'2 3.4
2019-Aug-21 02:00N 59°47' E 019°26'2 4.4
2019-Aug-21 01:30N 59°46' E 019°23'2 4.6
2019-Aug-21 01:00N 59°45' E 019°18'2 4.5
2019-Aug-21 00:30N 59°44' E 019°14'2 4.4
2019-Aug-21 00:00N 59°44' E 019°10'2 4.6
2019-Aug-20 23:30N 59°43' E 019°06'2 4.7
2019-Aug-20 23:00N 59°42' E 019°02'3 4.8
2019-Aug-20 22:28N 59°40' E 018°57'2 4.2
2019-Aug-20 22:00N 59°39' E 018°54'1 2.0
2019-Aug-20 21:30N 59°38' E 018°53'1 1.9
2019-Aug-20 21:00N 59°38' E 018°51'1 2.7
2019-Aug-20 20:28N 59°37' E 018°49'2 2.7
2019-Aug-20 19:40N 59°35' E 018°46'1 3.9
2019-Aug-20 19:24N 59°35' E 018°44'1 3.4
2019-Aug-20 18:58N 59°34' E 018°42'2 3.8
2019-Aug-20 18:30N 59°34' E 018°38'1 1.4
2019-Aug-20 18:00N 59°33' E 018°38'0 0.0
2019-Aug-20 17:30N 59°33' E 018°38'0 0.0
2019-Aug-20 17:00N 59°33' E 018°38'0 0.0
2019-Aug-20 16:30N 59°33' E 018°38'0 0.0
2019-Aug-20 16:00N 59°33' E 018°38'0 0.0
2019-Aug-20 15:30N 59°33' E 018°38'0 0.0
2019-Aug-20 15:00N 59°33' E 018°38'0 0.0
2019-Aug-20 14:29N 59°33' E 018°38'0 0.0
2019-Aug-20 13:57N 59°33' E 018°38'0 0.0
2019-Aug-20 13:26N 59°33' E 018°38'0 0.0
2019-Aug-20 12:59N 59°33' E 018°38'0 1.0
2019-Aug-20 12:30N 59°33' E 018°37'3 4.8
2019-Aug-20 11:51N 59°31' E 018°32'2 4.6
2019-Aug-20 11:28N 59°30' E 018°29'2 4.7
2019-Aug-20 11:01N 59°28' E 018°27'2 4.9
2019-Aug-20 10:30N 59°26' E 018°24'2 4.5
2019-Aug-20 10:00N 59°24' E 018°26'2 3.3
2019-Aug-20 09:30N 59°23' E 018°27'2 3.2
2019-Aug-20 09:00N 59°22' E 018°25'2 3.9
2019-Aug-20 08:30N 59°22' E 018°21'2 3.6
2019-Aug-20 08:00N 59°22' E 018°17'2 3.7
2019-Aug-20 07:30N 59°21' E 018°14'2 3.4
2019-Aug-20 07:00N 59°20' E 018°12'1 2.7
2019-Aug-20 06:30N 59°19' E 018°09'3 5.0
2019-Aug-20 06:00N 59°20' E 018°05'0 0.0
2019-Aug-20 05:25N 59°20' E 018°05'0 0.0
2019-Aug-20 04:58N 59°20' E 018°05'0 0.0
2019-Aug-20 04:28N 59°20' E 018°05'0 0.0
2019-Aug-20 03:58N 59°20' E 018°05'0 0.0
2019-Aug-20 03:28N 59°20' E 018°05'0 0.0
2019-Aug-20 02:58N 59°20' E 018°05'0 0.0
2019-Aug-20 02:28N 59°20' E 018°05'0 0.0
2019-Aug-20 01:58N 59°19' E 018°05'0 0.0
2019-Aug-20 01:28N 59°20' E 018°05'0 0.0
2019-Aug-20 00:58N 59°20' E 018°05'0 0.0
2019-Aug-20 00:28N 59°20' E 018°05'0 0.0
2019-Aug-19 23:58N 59°20' E 018°05'0 0.0
2019-Aug-19 23:28N 59°20' E 018°05'0 0.0
2019-Aug-19 22:58N 59°20' E 018°05'0 0.0
2019-Aug-19 22:28N 59°20' E 018°05'0 0.0
2019-Aug-19 21:58N 59°20' E 018°05'0 0.0
2019-Aug-19 21:28N 59°20' E 018°05'0 0.0
2019-Aug-19 20:58N 59°20' E 018°05'0 0.0
2019-Aug-19 20:28N 59°20' E 018°05'0 0.0
2019-Aug-19 19:58N 59°20' E 018°05'0 0.0
2019-Aug-19 19:28N 59°20' E 018°05'0 0.0
2019-Aug-19 18:55N 59°20' E 018°05'0 0.0
2019-Aug-19 18:28N 59°20' E 018°05'0 0.0
2019-Aug-19 17:58N 59°19' E 018°05'0 0.0
2019-Aug-19 17:28N 59°20' E 018°05'0 0.0
2019-Aug-19 16:58N 59°20' E 018°05'0 0.0
2019-Aug-19 16:19N 59°20' E 018°05'0 0.0
2019-Aug-19 15:55N 59°20' E 018°05'0 0.0
2019-Aug-19 15:28N 59°20' E 018°05'0 0.0
2019-Aug-19 14:58N 59°20' E 018°05'0 0.0
2019-Aug-19 14:28N 59°19' E 018°05'0 0.0
2019-Aug-19 13:58N 59°20' E 018°05'0 0.0
2019-Aug-19 13:28N 59°20' E 018°05'0 0.0
2019-Aug-19 12:58N 59°20' E 018°05'0 0.0
2019-Aug-19 12:28N 59°20' E 018°05'0 0.0
2019-Aug-19 11:58N 59°20' E 018°05'0 0.0
2019-Aug-19 11:25N 59°20' E 018°05'0 0.0
2019-Aug-19 10:55N 59°20' E 018°05'0 0.0
2019-Aug-19 10:28N 59°19' E 018°05'0 0.0
2019-Aug-19 09:58N 59°20' E 018°05'0 0.0
2019-Aug-19 09:28N 59°20' E 018°05'0 0.0
2019-Aug-19 08:58N 59°20' E 018°05'0 0.0
2019-Aug-19 08:28N 59°20' E 018°05'0 0.0
2019-Aug-19 07:58N 59°20' E 018°05'0 0.0
2019-Aug-19 07:28N 59°20' E 018°05'0 0.0
2019-Aug-19 06:58N 59°20' E 018°05'0 0.0
2019-Aug-19 06:28N 59°19' E 018°05'0 0.0
2019-Aug-19 05:58N 59°20' E 018°05'0 0.0
2019-Aug-19 05:28N 59°20' E 018°05'0 0.0
2019-Aug-19 04:58N 59°20' E 018°05'0 0.0
2019-Aug-19 04:28N 59°20' E 018°05'0 0.0
2019-Aug-19 03:55N 59°20' E 018°05'0 0.0
2019-Aug-19 03:28N 59°20' E 018°05'0 0.0
2019-Aug-19 02:58N 59°19' E 018°05'0 0.0
2019-Aug-19 02:28N 59°20' E 018°05'0 0.0
2019-Aug-19 01:58N 59°20' E 018°05'0 0.0
2019-Aug-19 01:28N 59°20' E 018°05'0 0.0
2019-Aug-19 00:58N 59°20' E 018°05'0 0.0
2019-Aug-19 00:28N 59°20' E 018°05'0 0.0
2019-Aug-18 23:58N 59°20' E 018°05'0 0.0
2019-Aug-18 23:28N 59°20' E 018°05'0 0.0
2019-Aug-18 22:58N 59°19' E 018°05'0 0.0
2019-Aug-18 22:28N 59°19' E 018°05'0 0.0
2019-Aug-18 21:58N 59°20' E 018°05'0 0.0
2019-Aug-18 21:28N 59°20' E 018°05'0 0.0
2019-Aug-18 20:58N 59°20' E 018°05'0 0.0
2019-Aug-18 20:28N 59°20' E 018°05'0 0.0
2019-Aug-18 19:58N 59°20' E 018°05'0 0.0
2019-Aug-18 19:28N 59°20' E 018°05'0 0.0
2019-Aug-18 18:58N 59°20' E 018°05'0 0.0
2019-Aug-18 18:28N 59°20' E 018°05'0 0.0
2019-Aug-18 17:55N 59°19' E 018°05'0 0.0
2019-Aug-18 17:28N 59°20' E 018°05'0 0.0
2019-Aug-18 16:58N 59°20' E 018°05'0 0.0
2019-Aug-18 16:28N 59°20' E 018°05'0 0.0
2019-Aug-18 15:58N 59°20' E 018°05'0 0.0
2019-Aug-18 15:28N 59°20' E 018°05'0 0.0
2019-Aug-18 14:58N 59°20' E 018°05'0 0.0
2019-Aug-18 14:25N 59°20' E 018°05'0 0.0
2019-Aug-18 13:58N 59°20' E 018°05'0 0.0
2019-Aug-18 13:28N 59°20' E 018°05'0 0.0
2019-Aug-18 12:58N 59°20' E 018°05'0 0.0
2019-Aug-18 12:28N 59°20' E 018°05'0 0.0
2019-Aug-18 11:58N 59°20' E 018°05'0 0.0
2019-Aug-18 11:28N 59°20' E 018°05'0 0.0
2019-Aug-18 10:58N 59°20' E 018°05'0 0.0
2019-Aug-18 10:28N 59°20' E 018°05'0 0.0
2019-Aug-18 09:58N 59°20' E 018°05'0 0.0
2019-Aug-18 09:28N 59°20' E 018°05'0 0.0
2019-Aug-18 08:58N 59°20' E 018°05'0 0.0
2019-Aug-18 08:28N 59°20' E 018°05'0 0.0
2019-Aug-18 07:58N 59°20' E 018°05'0 0.0
2019-Aug-18 06:58N 59°20' E 018°05'0 0.0
2019-Aug-18 06:28N 59°19' E 018°05'0 0.0
2019-Aug-18 05:58N 59°20' E 018°05'0 0.0
2019-Aug-18 05:28N 59°20' E 018°05'0 0.0
2019-Aug-18 04:58N 59°20' E 018°05'0 0.0
2019-Aug-18 04:28N 59°20' E 018°05'0 0.0
2019-Aug-18 03:58N 59°19' E 018°05'0 0.0
2019-Aug-18 03:28N 59°20' E 018°05'0 0.0
2019-Aug-18 02:58N 59°19' E 018°05'0 0.0
2019-Aug-18 02:28N 59°20' E 018°05'0 0.0
2019-Aug-18 01:58N 59°19' E 018°05'0 0.0
2019-Aug-18 01:28N 59°20' E 018°05'0 0.0
2019-Aug-18 00:58N 59°20' E 018°05'0 0.0
2019-Aug-18 00:28N 59°20' E 018°05'0 0.0
2019-Aug-17 23:58N 59°20' E 018°05'0 0.0
2019-Aug-17 23:28N 59°20' E 018°05'0 0.0
2019-Aug-17 22:58N 59°20' E 018°05'0 0.0
2019-Aug-17 22:28N 59°20' E 018°05'0 0.0
2019-Aug-17 21:58N 59°19' E 018°05'0 0.0
2019-Aug-17 21:28N 59°20' E 018°05'0 0.0
2019-Aug-17 20:58N 59°19' E 018°05'0 0.0
2019-Aug-17 20:28N 59°19' E 018°05'0 0.0
2019-Aug-17 19:58N 59°20' E 018°05'0 0.0
2019-Aug-17 19:25N 59°20' E 018°05'0 0.0
2019-Aug-17 18:58N 59°20' E 018°05'0 0.0
2019-Aug-17 18:22N 59°20' E 018°05'0 0.0
2019-Aug-17 17:28N 59°20' E 018°05'0 0.0
2019-Aug-17 16:58N 59°20' E 018°05'0 0.0
2019-Aug-17 16:28N 59°20' E 018°05'0 0.0
2019-Aug-17 15:55N 59°20' E 018°05'0 0.0
2019-Aug-17 15:28N 59°20' E 018°05'0 0.0
2019-Aug-17 14:58N 59°20' E 018°05'0 0.0
2019-Aug-17 14:28N 59°20' E 018°05'0 0.0
2019-Aug-17 13:58N 59°20' E 018°05'0 0.0
2019-Aug-17 13:28N 59°20' E 018°05'0 0.0
2019-Aug-17 12:58N 59°20' E 018°05'0 0.0
2019-Aug-17 12:28N 59°19' E 018°05'0 0.0
2019-Aug-17 11:58N 59°20' E 018°05'0 0.0
2019-Aug-17 11:28N 59°20' E 018°05'0 0.0
2019-Aug-17 10:58N 59°20' E 018°05'0 0.0
2019-Aug-17 10:28N 59°20' E 018°05'1 2.3
2019-Aug-17 10:01N 59°19' E 018°07'3 5.8
2019-Aug-17 09:30N 59°20' E 018°12'3 5.8
2019-Aug-17 09:00N 59°22' E 018°16'3 5.3
2019-Aug-17 08:29N 59°24' E 018°21'2 5.2
2019-Aug-17 08:00N 59°26' E 018°22'3 6.4
2019-Aug-17 07:30N 59°28' E 018°26'3 6.6
2019-Aug-17 06:59N 59°31' E 018°30'3 6.6
2019-Aug-17 06:29N 59°33' E 018°36'1 1.8
2019-Aug-17 05:52N 59°33' E 018°38'0 0.0
2019-Aug-17 04:55N 59°33' E 018°38'0 0.0
2019-Aug-17 04:23N 59°33' E 018°38'0 0.0
2019-Aug-17 02:23N 59°33' E 018°38'0 0.0
2019-Aug-17 01:52N 59°33' E 018°38'0 0.0
2019-Aug-17 01:28N 59°33' E 018°38'0 0.0
2019-Aug-17 00:58N 59°33' E 018°38'0 0.0
2019-Aug-17 00:28N 59°33' E 018°38'0 0.0
2019-Aug-16 23:58N 59°33' E 018°38'0 0.0
2019-Aug-16 23:28N 59°33' E 018°38'0 0.0
2019-Aug-16 22:58N 59°33' E 018°38'0 0.0
2019-Aug-16 16:53N 59°33' E 018°38'0 0.0
2019-Aug-16 16:30N 59°33' E 018°38'0 0.0
2019-Aug-16 16:00N 59°33' E 018°38'0 0.3
2019-Aug-16 15:28N 59°33' E 018°37'0 0.1
2019-Aug-16 14:59N 59°33' E 018°37'0 0.0
2019-Aug-16 14:23N 59°33' E 018°37'1 0.5
2019-Aug-16 13:10N 59°33' E 018°36'0 2.2
2019-Aug-16 13:00N 59°33' E 018°36'3 3.6
2019-Aug-16 12:06N 59°30' E 018°31'1 3.7
2019-Aug-16 11:57N 59°30' E 018°31'2 4.7
2019-Aug-16 11:30N 59°28' E 018°30'2 4.1
2019-Aug-16 10:58N 59°26' E 018°31'2 4.5
2019-Aug-16 10:27N 59°24' E 018°35'4 4.8
2019-Aug-16 09:40N 59°23' E 018°42'4 5.2
2019-Aug-16 08:55N 59°20' E 018°47'2 4.1
2019-Aug-16 08:24N 59°18' E 018°50'3 4.6
2019-Aug-16 07:50N 59°17' E 018°55'3 5.8
2019-Aug-16 07:23N 59°16' E 018°59'3 5.6
2019-Aug-16 06:46N 59°13' E 018°60'5 7.0
2019-Aug-16 06:01N 59°08' E 018°55'1 6.0
2019-Aug-16 05:52N 59°07' E 018°54'3 6.4
2019-Aug-16 05:28N 59°05' E 018°51'6 6.2
2019-Aug-16 04:31N 59°00' E 018°45'1 4.9
2019-Aug-16 04:20N 58°60' E 018°44'2 4.1
2019-Aug-16 03:58N 58°59' E 018°41'2 2.3
2019-Aug-16 03:03N 58°57' E 018°38'3 4.1
2019-Aug-16 02:20N 58°56' E 018°33'2 4.9
2019-Aug-16 01:51N 58°54' E 018°30'1 3.2
2019-Aug-16 01:28N 58°54' E 018°28'3 4.1
2019-Aug-16 00:50N 58°52' E 018°24'1 4.0
2019-Aug-16 00:30N 58°51' E 018°22'2 3.9
2019-Aug-16 00:00N 58°50' E 018°19'2 4.1
2019-Aug-15 23:29N 58°49' E 018°16'2 4.3
2019-Aug-15 23:00N 58°47' E 018°13'2 4.4
2019-Aug-15 22:30N 58°46' E 018°10'2 4.6
2019-Aug-15 22:00N 58°44' E 018°07'3 5.3
2019-Aug-15 21:30N 58°42' E 018°03'3 6.0
2019-Aug-15 21:00N 58°41' E 017°58'5 6.0
2019-Aug-15 20:09N 58°38' E 017°50'1 6.0
2019-Aug-15 19:57N 58°37' E 017°49'3 6.7
2019-Aug-15 19:30N 58°35' E 017°44'3 6.8
2019-Aug-15 19:00N 58°33' E 017°38'3 6.3
2019-Aug-15 18:30N 58°31' E 017°34'3 6.2
2019-Aug-15 18:00N 58°30' E 017°29'2 4.9
2019-Aug-15 17:30N 58°28' E 017°25'1 1.1
2019-Aug-15 17:00N 58°28' E 017°24'2 4.9
2019-Aug-15 16:30N 58°26' E 017°21'3 5.9
2019-Aug-15 16:00N 58°23' E 017°19'3 6.3
2019-Aug-15 15:30N 58°21' E 017°16'3 5.7
2019-Aug-15 14:58N 58°18' E 017°12'3 5.1
2019-Aug-15 14:23N 58°15' E 017°10'2 5.0
2019-Aug-15 14:00N 58°13' E 017°09'3 5.7
2019-Aug-15 13:29N 58°10' E 017°09'17 4.6
2019-Aug-15 09:39N 57°54' E 016°60'1 2.8
2019-Aug-15 09:21N 57°53' E 016°59'4 2.4
2019-Aug-15 07:42N 57°49' E 016°57'0 2.4
2019-Aug-15 07:30N 57°49' E 016°57'1 2.5
2019-Aug-15 07:00N 57°47' E 016°56'2 3.1
2019-Aug-15 06:22N 57°45' E 016°56'1 3.7
2019-Aug-15 06:00N 57°44' E 016°55'2 4.2
2019-Aug-15 05:27N 57°42' E 016°55'3 5.5
2019-Aug-15 04:52N 57°39' E 016°54'3 6.1
2019-Aug-15 04:23N 57°36' E 016°53'2 4.9
2019-Aug-15 04:00N 57°34' E 016°52'2 4.4
2019-Aug-15 03:30N 57°32' E 016°52'2 4.3
2019-Aug-15 03:00N 57°30' E 016°52'3 5.4
2019-Aug-15 02:30N 57°27' E 016°51'3 6.2
2019-Aug-15 02:00N 57°24' E 016°50'3 5.9
2019-Aug-15 01:30N 57°21' E 016°50'3 6.0
2019-Aug-15 01:00N 57°18' E 016°50'3 6.6
2019-Aug-15 00:30N 57°15' E 016°49'4 7.4
2019-Aug-14 23:59N 57°11' E 016°47'4 7.6
2019-Aug-14 23:30N 57°08' E 016°44'4 7.7
2019-Aug-14 22:57N 57°04' E 016°42'5 6.8
2019-Aug-14 22:11N 56°59' E 016°38'1 6.8
2019-Aug-14 21:59N 56°58' E 016°37'3 6.5
2019-Aug-14 21:30N 56°55' E 016°35'3 6.5
2019-Aug-14 21:00N 56°51' E 016°33'3 6.4
2019-Aug-14 20:30N 56°48' E 016°31'4 6.1
2019-Aug-14 19:55N 56°45' E 016°29'2 5.5
2019-Aug-14 19:30N 56°43' E 016°27'2 3.9
2019-Aug-14 18:59N 56°42' E 016°24'2 4.0
2019-Aug-14 18:30N 56°40' E 016°23'  
Track history (hours):
 
Tides and Currents Weather Stations Pressure Air Temp Water Temp Dewpoint Dewpoint Depression Visibility Wind Speed Wind Dir Waves Ship Positions

Shtandart

Re-creation of early 1700's Russian naval frigate.

Last reported at 2019-Aug-24 07:28 UTC. Time now 2019-Aug-24 07:39 UTC.
Position N 59°27' E 024°46'.

Length 26 m; draft 3 m.

Type: Sailing vessel. MMSI: 273452840.

Date/timePositionNaut miles runAvg speedWind from/ knotsBaromVisibWave heightAir tempDewpointWater temp
2019-Aug-24 07:28N 59°27' E 024°46'0 0.0
2019-Aug-24 06:58N 59°27' E 024°46'0 0.0
2019-Aug-24 06:28N 59°27' E 024°46'0 0.0
2019-Aug-24 05:55N 59°27' E 024°46'0 0.0
2019-Aug-24 05:25N 59°27' E 024°46'0 0.0
2019-Aug-24 04:58N 59°27' E 024°46'0 0.0
2019-Aug-24 04:25N 59°27' E 024°46'0 0.0
2019-Aug-24 03:58N 59°27' E 024°46'0 0.0
2019-Aug-24 03:28N 59°27' E 024°46'0 0.0
2019-Aug-24 02:58N 59°27' E 024°46'0 0.0
2019-Aug-24 02:28N 59°27' E 024°46'0 0.0
2019-Aug-24 01:58N 59°27' E 024°46'0 0.0
2019-Aug-24 01:25N 59°27' E 024°46'0 0.0
2019-Aug-24 00:58N 59°27' E 024°46'0 0.0
2019-Aug-24 00:28N 59°27' E 024°46'0 0.0
2019-Aug-23 23:58N 59°27' E 024°46'0 0.0
2019-Aug-23 23:28N 59°27' E 024°46'0 0.0
2019-Aug-23 22:55N 59°27' E 024°46'0 0.0
2019-Aug-23 22:25N 59°27' E 024°46'0 0.0
2019-Aug-23 21:58N 59°27' E 024°46'0 0.0
2019-Aug-23 21:28N 59°27' E 024°46'0 0.0
2019-Aug-23 20:58N 59°27' E 024°46'0 0.0
2019-Aug-23 20:28N 59°27' E 024°46'0 0.0
2019-Aug-23 19:58N 59°27' E 024°46'0 0.0
2019-Aug-23 19:25N 59°27' E 024°46'0 0.0
2019-Aug-23 18:58N 59°27' E 024°46'0 0.0
2019-Aug-23 18:28N 59°27' E 024°46'0 0.0
2019-Aug-23 17:55N 59°27' E 024°46'0 0.0
2019-Aug-23 17:25N 59°27' E 024°46'0 0.0
2019-Aug-23 16:58N 59°27' E 024°46'0 0.0
2019-Aug-23 16:25N 59°27' E 024°46'0 0.0
2019-Aug-23 15:55N 59°27' E 024°46'0 0.0
2019-Aug-23 15:28N 59°27' E 024°46'0 0.0
2019-Aug-23 14:58N 59°27' E 024°46'0 0.0
2019-Aug-23 14:25N 59°27' E 024°46'0 0.0
2019-Aug-23 13:58N 59°27' E 024°46'0 0.0
2019-Aug-23 13:25N 59°27' E 024°46'0 0.0
2019-Aug-23 12:55N 59°27' E 024°46'0 0.0
2019-Aug-23 12:25N 59°27' E 024°46'0 0.0
2019-Aug-23 11:58N 59°27' E 024°46'0 0.0
2019-Aug-23 11:28N 59°27' E 024°46'0 0.0
2019-Aug-23 10:55N 59°27' E 024°46'0 0.0
2019-Aug-23 10:25N 59°27' E 024°46'0 0.0
2019-Aug-23 09:58N 59°27' E 024°46'0 0.0
2019-Aug-23 09:25N 59°27' E 024°46'0 0.0
2019-Aug-23 08:52N 59°27' E 024°46'0 0.0
2019-Aug-23 08:28N 59°27' E 024°46'0 0.0
2019-Aug-23 07:58N 59°27' E 024°46'0 0.0
2019-Aug-23 07:28N 59°27' E 024°46'0 0.0
2019-Aug-23 06:58N 59°27' E 024°46'0 0.0
2019-Aug-23 06:22N 59°27' E 024°46'0 0.0
2019-Aug-23 05:58N 59°27' E 024°46'0 0.0
2019-Aug-23 05:28N 59°27' E 024°46'0 0.0
2019-Aug-23 04:58N 59°27' E 024°46'0 0.0
2019-Aug-23 04:28N 59°27' E 024°46'0 0.0
2019-Aug-23 03:58N 59°27' E 024°46'0 0.0
2019-Aug-23 03:28N 59°27' E 024°46'0 0.0
2019-Aug-23 02:58N 59°27' E 024°46'0 0.0
2019-Aug-23 02:28N 59°27' E 024°46'0 0.0
2019-Aug-23 01:58N 59°27' E 024°46'0 0.0
2019-Aug-23 01:25N 59°27' E 024°46'0 0.0
2019-Aug-23 00:55N 59°27' E 024°46'0 0.0
2019-Aug-23 00:28N 59°27' E 024°46'0 0.0
2019-Aug-23 00:00N 59°27' E 024°46'2 3.4
2019-Aug-22 23:30N 59°28' E 024°46'2 3.9
2019-Aug-22 23:00N 59°30' E 024°43'3 5.5
2019-Aug-22 22:30N 59°30' E 024°38'3 6.1
2019-Aug-22 22:00N 59°30' E 024°32'3 6.0
2019-Aug-22 21:30N 59°30' E 024°26'3 6.1
2019-Aug-22 21:01N 59°29' E 024°20'3 6.4
2019-Aug-22 20:30N 59°30' E 024°14'3 6.4
2019-Aug-22 20:00N 59°30' E 024°07'4 7.0
2019-Aug-22 19:30N 59°30' E 024°00'11 7.0
2019-Aug-22 17:53N 59°33' E 023°39'4 7.2
2019-Aug-22 17:18N 59°33' E 023°30'2 7.4
2019-Aug-22 17:00N 59°34' E 023°26'4 7.3
2019-Aug-22 16:31N 59°34' E 023°19'4 7.4
2019-Aug-22 16:01N 59°34' E 023°12'4 7.1
2019-Aug-22 15:28N 59°34' E 023°04'3 6.7
2019-Aug-22 15:01N 59°34' E 022°58'9 6.6
2019-Aug-22 13:36N 59°35' E 022°40'1 5.9
2019-Aug-22 13:28N 59°35' E 022°38'5 5.5
2019-Aug-22 12:30N 59°34' E 022°28'4 5.0
2019-Aug-22 11:46N 59°33' E 022°21'2 5.7
2019-Aug-22 11:25N 59°33' E 022°17'2 5.6
2019-Aug-22 10:58N 59°33' E 022°12'3 5.7
2019-Aug-22 10:30N 59°34' E 022°06'3 5.5
2019-Aug-22 09:54N 59°34' E 021°60'2 5.3
2019-Aug-22 09:29N 59°34' E 021°56'2 5.0
2019-Aug-22 09:00N 59°35' E 021°51'3 5.1
2019-Aug-22 08:30N 59°35' E 021°46'2 4.7
2019-Aug-22 08:00N 59°35' E 021°41'2 4.8
2019-Aug-22 07:30N 59°36' E 021°37'3 5.3
2019-Aug-22 07:00N 59°37' E 021°32'3 5.1
2019-Aug-22 06:30N 59°38' E 021°27'3 5.4
2019-Aug-22 06:00N 59°39' E 021°22'2 4.9
2019-Aug-22 05:30N 59°40' E 021°18'2 4.8
2019-Aug-22 05:00N 59°41' E 021°14'2 4.2
2019-Aug-22 04:30N 59°41' E 021°10'2 4.3
2019-Aug-22 04:00N 59°42' E 021°05'2 3.7
2019-Aug-22 03:30N 59°42' E 021°02'2 4.0
2019-Aug-22 03:00N 59°42' E 020°58'26 4.7
2019-Aug-21 21:31N 59°50' E 020°09'3 5.1
2019-Aug-21 20:55N 59°52' E 020°03'11 0.8
2019-Aug-21 06:59N 60°01' E 019°52'4 3.8
2019-Aug-21 05:53N 59°58' E 019°46'2 4.5
2019-Aug-21 05:25N 59°57' E 019°43'2 4.2
2019-Aug-21 04:59N 59°55' E 019°41'2 4.1
2019-Aug-21 04:30N 59°54' E 019°38'2 4.1
2019-Aug-21 04:00N 59°52' E 019°35'2 3.7
2019-Aug-21 03:30N 59°51' E 019°33'2 3.5
2019-Aug-21 03:00N 59°50' E 019°31'2 3.3
2019-Aug-21 02:30N 59°48' E 019°28'2 3.4
2019-Aug-21 02:00N 59°47' E 019°26'2 4.4
2019-Aug-21 01:30N 59°46' E 019°23'2 4.6
2019-Aug-21 01:00N 59°45' E 019°18'2 4.5
2019-Aug-21 00:30N 59°44' E 019°14'2 4.4
2019-Aug-21 00:00N 59°44' E 019°10'2 4.6
2019-Aug-20 23:30N 59°43' E 019°06'2 4.7
2019-Aug-20 23:00N 59°42' E 019°02'3 4.8
2019-Aug-20 22:28N 59°40' E 018°57'2 4.2
2019-Aug-20 22:00N 59°39' E 018°54'1 2.0
2019-Aug-20 21:30N 59°38' E 018°53'1 1.9
2019-Aug-20 21:00N 59°38' E 018°51'1 2.7
2019-Aug-20 20:28N 59°37' E 018°49'2 2.7
2019-Aug-20 19:40N 59°35' E 018°46'1 3.9
2019-Aug-20 19:24N 59°35' E 018°44'1 3.4
2019-Aug-20 18:58N 59°34' E 018°42'2 3.8
2019-Aug-20 18:30N 59°34' E 018°38'1 1.4
2019-Aug-20 18:00N 59°33' E 018°38'0 0.0
2019-Aug-20 17:30N 59°33' E 018°38'0 0.0
2019-Aug-20 17:00N 59°33' E 018°38'0 0.0
2019-Aug-20 16:30N 59°33' E 018°38'0 0.0
2019-Aug-20 16:00N 59°33' E 018°38'0 0.0
2019-Aug-20 15:30N 59°33' E 018°38'0 0.0
2019-Aug-20 15:00N 59°33' E 018°38'0 0.0
2019-Aug-20 14:29N 59°33' E 018°38'0 0.0
2019-Aug-20 13:57N 59°33' E 018°38'0 0.0
2019-Aug-20 13:26N 59°33' E 018°38'0 0.0
2019-Aug-20 12:59N 59°33' E 018°38'0 1.0
2019-Aug-20 12:30N 59°33' E 018°37'3 4.8
2019-Aug-20 11:51N 59°31' E 018°32'2 4.6
2019-Aug-20 11:28N 59°30' E 018°29'2 4.7
2019-Aug-20 11:01N 59°28' E 018°27'2 4.9
2019-Aug-20 10:30N 59°26' E 018°24'2 4.5
2019-Aug-20 10:00N 59°24' E 018°26'2 3.3
2019-Aug-20 09:30N 59°23' E 018°27'2 3.2
2019-Aug-20 09:00N 59°22' E 018°25'2 3.9
2019-Aug-20 08:30N 59°22' E 018°21'2 3.6
2019-Aug-20 08:00N 59°22' E 018°17'2 3.7
2019-Aug-20 07:30N 59°21' E 018°14'2 3.4
2019-Aug-20 07:00N 59°20' E 018°12'1 2.7
2019-Aug-20 06:30N 59°19' E 018°09'3 5.0
2019-Aug-20 06:00N 59°20' E 018°05'0 0.0
2019-Aug-20 05:25N 59°20' E 018°05'0 0.0
2019-Aug-20 04:58N 59°20' E 018°05'0 0.0
2019-Aug-20 04:28N 59°20' E 018°05'0 0.0
2019-Aug-20 03:58N 59°20' E 018°05'0 0.0
2019-Aug-20 03:28N 59°20' E 018°05'0 0.0
2019-Aug-20 02:58N 59°20' E 018°05'0 0.0
2019-Aug-20 02:28N 59°20' E 018°05'0 0.0
2019-Aug-20 01:58N 59°19' E 018°05'0 0.0
2019-Aug-20 01:28N 59°20' E 018°05'0 0.0
2019-Aug-20 00:58N 59°20' E 018°05'0 0.0
2019-Aug-20 00:28N 59°20' E 018°05'0 0.0
2019-Aug-19 23:58N 59°20' E 018°05'0 0.0
2019-Aug-19 23:28N 59°20' E 018°05'0 0.0
2019-Aug-19 22:58N 59°20' E 018°05'0 0.0
2019-Aug-19 22:28N 59°20' E 018°05'0 0.0
2019-Aug-19 21:58N 59°20' E 018°05'0 0.0
2019-Aug-19 21:28N 59°20' E 018°05'0 0.0
2019-Aug-19 20:58N 59°20' E 018°05'0 0.0
2019-Aug-19 20:28N 59°20' E 018°05'0 0.0
2019-Aug-19 19:58N 59°20' E 018°05'0 0.0
2019-Aug-19 19:28N 59°20' E 018°05'0 0.0
2019-Aug-19 18:55N 59°20' E 018°05'0 0.0
2019-Aug-19 18:28N 59°20' E 018°05'0 0.0
2019-Aug-19 17:58N 59°19' E 018°05'0 0.0
2019-Aug-19 17:28N 59°20' E 018°05'0 0.0
2019-Aug-19 16:58N 59°20' E 018°05'0 0.0
2019-Aug-19 16:19N 59°20' E 018°05'0 0.0
2019-Aug-19 15:55N 59°20' E 018°05'0 0.0
2019-Aug-19 15:28N 59°20' E 018°05'0 0.0
2019-Aug-19 14:58N 59°20' E 018°05'0 0.0
2019-Aug-19 14:28N 59°19' E 018°05'0 0.0
2019-Aug-19 13:58N 59°20' E 018°05'0 0.0
2019-Aug-19 13:28N 59°20' E 018°05'0 0.0
2019-Aug-19 12:58N 59°20' E 018°05'0 0.0
2019-Aug-19 12:28N 59°20' E 018°05'0 0.0
2019-Aug-19 11:58N 59°20' E 018°05'0 0.0
2019-Aug-19 11:25N 59°20' E 018°05'0 0.0
2019-Aug-19 10:55N 59°20' E 018°05'0 0.0
2019-Aug-19 10:28N 59°19' E 018°05'0 0.0
2019-Aug-19 09:58N 59°20' E 018°05'0 0.0
2019-Aug-19 09:28N 59°20' E 018°05'0 0.0
2019-Aug-19 08:58N 59°20' E 018°05'0 0.0
2019-Aug-19 08:28N 59°20' E 018°05'0 0.0
2019-Aug-19 07:58N 59°20' E 018°05'0 0.0
2019-Aug-19 07:28N 59°20' E 018°05'0 0.0
2019-Aug-19 06:58N 59°20' E 018°05'0 0.0
2019-Aug-19 06:28N 59°19' E 018°05'0 0.0
2019-Aug-19 05:58N 59°20' E 018°05'0 0.0
2019-Aug-19 05:28N 59°20' E 018°05'0 0.0
2019-Aug-19 04:58N 59°20' E 018°05'0 0.0
2019-Aug-19 04:28N 59°20' E 018°05'0 0.0
2019-Aug-19 03:55N 59°20' E 018°05'0 0.0
2019-Aug-19 03:28N 59°20' E 018°05'0 0.0
2019-Aug-19 02:58N 59°19' E 018°05'0 0.0
2019-Aug-19 02:28N 59°20' E 018°05'0 0.0
2019-Aug-19 01:58N 59°20' E 018°05'0 0.0
2019-Aug-19 01:28N 59°20' E 018°05'0 0.0
2019-Aug-19 00:58N 59°20' E 018°05'0 0.0
2019-Aug-19 00:28N 59°20' E 018°05'0 0.0
2019-Aug-18 23:58N 59°20' E 018°05'0 0.0
2019-Aug-18 23:28N 59°20' E 018°05'0 0.0
2019-Aug-18 22:58N 59°19' E 018°05'0 0.0
2019-Aug-18 22:28N 59°19' E 018°05'0 0.0
2019-Aug-18 21:58N 59°20' E 018°05'0 0.0
2019-Aug-18 21:28N 59°20' E 018°05'0 0.0
2019-Aug-18 20:58N 59°20' E 018°05'0 0.0
2019-Aug-18 20:28N 59°20' E 018°05'0 0.0
2019-Aug-18 19:58N 59°20' E 018°05'0 0.0
2019-Aug-18 19:28N 59°20' E 018°05'0 0.0
2019-Aug-18 18:58N 59°20' E 018°05'0 0.0
2019-Aug-18 18:28N 59°20' E 018°05'0 0.0
2019-Aug-18 17:55N 59°19' E 018°05'0 0.0
2019-Aug-18 17:28N 59°20' E 018°05'0 0.0
2019-Aug-18 16:58N 59°20' E 018°05'0 0.0
2019-Aug-18 16:28N 59°20' E 018°05'0 0.0
2019-Aug-18 15:58N 59°20' E 018°05'0 0.0
2019-Aug-18 15:28N 59°20' E 018°05'0 0.0
2019-Aug-18 14:58N 59°20' E 018°05'0 0.0
2019-Aug-18 14:25N 59°20' E 018°05'0 0.0
2019-Aug-18 13:58N 59°20' E 018°05'0 0.0
2019-Aug-18 13:28N 59°20' E 018°05'0 0.0
2019-Aug-18 12:58N 59°20' E 018°05'0 0.0
2019-Aug-18 12:28N 59°20' E 018°05'0 0.0
2019-Aug-18 11:58N 59°20' E 018°05'0 0.0
2019-Aug-18 11:28N 59°20' E 018°05'0 0.0
2019-Aug-18 10:58N 59°20' E 018°05'0 0.0
2019-Aug-18 10:28N 59°20' E 018°05'0 0.0
2019-Aug-18 09:58N 59°20' E 018°05'0 0.0
2019-Aug-18 09:28N 59°20' E 018°05'0 0.0
2019-Aug-18 08:58N 59°20' E 018°05'0 0.0
2019-Aug-18 08:28N 59°20' E 018°05'0 0.0
2019-Aug-18 07:58N 59°20' E 018°05'0 0.0
2019-Aug-18 06:58N 59°20' E 018°05'0 0.0
2019-Aug-18 06:28N 59°19' E 018°05'0 0.0
2019-Aug-18 05:58N 59°20' E 018°05'0 0.0
2019-Aug-18 05:28N 59°20' E 018°05'0 0.0
2019-Aug-18 04:58N 59°20' E 018°05'0 0.0
2019-Aug-18 04:28N 59°20' E 018°05'0 0.0
2019-Aug-18 03:58N 59°19' E 018°05'0 0.0
2019-Aug-18 03:28N 59°20' E 018°05'0 0.0
2019-Aug-18 02:58N 59°19' E 018°05'0 0.0
2019-Aug-18 02:28N 59°20' E 018°05'0 0.0
2019-Aug-18 01:58N 59°19' E 018°05'0 0.0
2019-Aug-18 01:28N 59°20' E 018°05'0 0.0
2019-Aug-18 00:58N 59°20' E 018°05'0 0.0
2019-Aug-18 00:28N 59°20' E 018°05'0 0.0
2019-Aug-17 23:58N 59°20' E 018°05'0 0.0
2019-Aug-17 23:28N 59°20' E 018°05'0 0.0
2019-Aug-17 22:58N 59°20' E 018°05'0 0.0
2019-Aug-17 22:28N 59°20' E 018°05'0 0.0
2019-Aug-17 21:58N 59°19' E 018°05'0 0.0
2019-Aug-17 21:28N 59°20' E 018°05'0 0.0
2019-Aug-17 20:58N 59°19' E 018°05'0 0.0
2019-Aug-17 20:28N 59°19' E 018°05'0 0.0
2019-Aug-17 19:58N 59°20' E 018°05'0 0.0
2019-Aug-17 19:25N 59°20' E 018°05'0 0.0
2019-Aug-17 18:58N 59°20' E 018°05'0 0.0
2019-Aug-17 18:22N 59°20' E 018°05'0 0.0
2019-Aug-17 17:28N 59°20' E 018°05'0 0.0
2019-Aug-17 16:58N 59°20' E 018°05'0 0.0
2019-Aug-17 16:28N 59°20' E 018°05'0 0.0
2019-Aug-17 15:55N 59°20' E 018°05'0 0.0
2019-Aug-17 15:28N 59°20' E 018°05'0 0.0
2019-Aug-17 14:58N 59°20' E 018°05'0 0.0
2019-Aug-17 14:28N 59°20' E 018°05'0 0.0
2019-Aug-17 13:58N 59°20' E 018°05'0 0.0
2019-Aug-17 13:28N 59°20' E 018°05'0 0.0
2019-Aug-17 12:58N 59°20' E 018°05'0 0.0
2019-Aug-17 12:28N 59°19' E 018°05'0 0.0
2019-Aug-17 11:58N 59°20' E 018°05'0 0.0
2019-Aug-17 11:28N 59°20' E 018°05'0 0.0
2019-Aug-17 10:58N 59°20' E 018°05'0 0.0
2019-Aug-17 10:28N 59°20' E 018°05'1 2.3
2019-Aug-17 10:01N 59°19' E 018°07'3 5.8
2019-Aug-17 09:30N 59°20' E 018°12'3 5.8
2019-Aug-17 09:00N 59°22' E 018°16'3 5.3
2019-Aug-17 08:29N 59°24' E 018°21'2 5.2
2019-Aug-17 08:00N 59°26' E 018°22'3 6.4
2019-Aug-17 07:30N 59°28' E 018°26'3 6.6
2019-Aug-17 06:59N 59°31' E 018°30'3 6.6
2019-Aug-17 06:29N 59°33' E 018°36'1 1.8
2019-Aug-17 05:52N 59°33' E 018°38'0 0.0
2019-Aug-17 04:55N 59°33' E 018°38'0 0.0
2019-Aug-17 04:23N 59°33' E 018°38'0 0.0
2019-Aug-17 02:23N 59°33' E 018°38'0 0.0
2019-Aug-17 01:52N 59°33' E 018°38'0 0.0
2019-Aug-17 01:28N 59°33' E 018°38'0 0.0
2019-Aug-17 00:58N 59°33' E 018°38'0 0.0
2019-Aug-17 00:28N 59°33' E 018°38'0 0.0
2019-Aug-16 23:58N 59°33' E 018°38'0 0.0
2019-Aug-16 23:28N 59°33' E 018°38'0 0.0
2019-Aug-16 22:58N 59°33' E 018°38'0 0.0
2019-Aug-16 16:53N 59°33' E 018°38'0 0.0
2019-Aug-16 16:30N 59°33' E 018°38'0 0.0
2019-Aug-16 16:00N 59°33' E 018°38'0 0.3
2019-Aug-16 15:28N 59°33' E 018°37'0 0.1
2019-Aug-16 14:59N 59°33' E 018°37'0 0.0
2019-Aug-16 14:23N 59°33' E 018°37'1 0.5
2019-Aug-16 13:10N 59°33' E 018°36'0 2.2
2019-Aug-16 13:00N 59°33' E 018°36'3 3.6
2019-Aug-16 12:06N 59°30' E 018°31'1 3.7
2019-Aug-16 11:57N 59°30' E 018°31'2 4.7
2019-Aug-16 11:30N 59°28' E 018°30'2 4.1
2019-Aug-16 10:58N 59°26' E 018°31'2 4.5
2019-Aug-16 10:27N 59°24' E 018°35'4 4.8
2019-Aug-16 09:40N 59°23' E 018°42'4 5.2
2019-Aug-16 08:55N 59°20' E 018°47'2 4.1
2019-Aug-16 08:24N 59°18' E 018°50'3 4.6
2019-Aug-16 07:50N 59°17' E 018°55'3 5.8
2019-Aug-16 07:23N 59°16' E 018°59'3 5.6
2019-Aug-16 06:46N 59°13' E 018°60'5 7.0
2019-Aug-16 06:01N 59°08' E 018°55'1 6.0
2019-Aug-16 05:52N 59°07' E 018°54'3 6.4
2019-Aug-16 05:28N 59°05' E 018°51'6 6.2
2019-Aug-16 04:31N 59°00' E 018°45'1 4.9
2019-Aug-16 04:20N 58°60' E 018°44'2 4.1
2019-Aug-16 03:58N 58°59' E 018°41'2 2.3
2019-Aug-16 03:03N 58°57' E 018°38'3 4.1
2019-Aug-16 02:20N 58°56' E 018°33'2 4.9
2019-Aug-16 01:51N 58°54' E 018°30'1 3.2
2019-Aug-16 01:28N 58°54' E 018°28'3 4.1
2019-Aug-16 00:50N 58°52' E 018°24'1 4.0
2019-Aug-16 00:30N 58°51' E 018°22'2 3.9
2019-Aug-16 00:00N 58°50' E 018°19'2 4.1
2019-Aug-15 23:29N 58°49' E 018°16'2 4.3
2019-Aug-15 23:00N 58°47' E 018°13'2 4.4
2019-Aug-15 22:30N 58°46' E 018°10'2 4.6
2019-Aug-15 22:00N 58°44' E 018°07'3 5.3
2019-Aug-15 21:30N 58°42' E 018°03'3 6.0
2019-Aug-15 21:00N 58°41' E 017°58'5 6.0
2019-Aug-15 20:09N 58°38' E 017°50'1 6.0
2019-Aug-15 19:57N 58°37' E 017°49'3 6.7
2019-Aug-15 19:30N 58°35' E 017°44'3 6.8
2019-Aug-15 19:00N 58°33' E 017°38'3 6.3
2019-Aug-15 18:30N 58°31' E 017°34'3 6.2
2019-Aug-15 18:00N 58°30' E 017°29'2 4.9
2019-Aug-15 17:30N 58°28' E 017°25'1 1.1
2019-Aug-15 17:00N 58°28' E 017°24'2 4.9
2019-Aug-15 16:30N 58°26' E 017°21'3 5.9
2019-Aug-15 16:00N 58°23' E 017°19'3 6.3
2019-Aug-15 15:30N 58°21' E 017°16'3 5.7
2019-Aug-15 14:58N 58°18' E 017°12'3 5.1
2019-Aug-15 14:23N 58°15' E 017°10'2 5.0
2019-Aug-15 14:00N 58°13' E 017°09'3 5.7
2019-Aug-15 13:29N 58°10' E 017°09'17 4.6
2019-Aug-15 09:39N 57°54' E 016°60'1 2.8
2019-Aug-15 09:21N 57°53' E 016°59'4 2.4
2019-Aug-15 07:42N 57°49' E 016°57'0 2.4
2019-Aug-15 07:30N 57°49' E 016°57'1 2.5
2019-Aug-15 07:00N 57°47' E 016°56'2 3.1
2019-Aug-15 06:22N 57°45' E 016°56'1 3.7
2019-Aug-15 06:00N 57°44' E 016°55'2 4.2
2019-Aug-15 05:27N 57°42' E 016°55'3 5.5
2019-Aug-15 04:52N 57°39' E 016°54'3 6.1
2019-Aug-15 04:23N 57°36' E 016°53'2 4.9
2019-Aug-15 04:00N 57°34' E 016°52'2 4.4
2019-Aug-15 03:30N 57°32' E 016°52'2 4.3
2019-Aug-15 03:00N 57°30' E 016°52'3 5.4
2019-Aug-15 02:30N 57°27' E 016°51'3 6.2
2019-Aug-15 02:00N 57°24' E 016°50'3 5.9
2019-Aug-15 01:30N 57°21' E 016°50'3 6.0
2019-Aug-15 01:00N 57°18' E 016°50'3 6.6
2019-Aug-15 00:30N 57°15' E 016°49'4 7.4
2019-Aug-14 23:59N 57°11' E 016°47'4 7.6
2019-Aug-14 23:30N 57°08' E 016°44'4 7.7
2019-Aug-14 22:57N 57°04' E 016°42'5 6.8
2019-Aug-14 22:11N 56°59' E 016°38'1 6.8
2019-Aug-14 21:59N 56°58' E 016°37'3 6.5
2019-Aug-14 21:30N 56°55' E 016°35'3 6.5
2019-Aug-14 21:00N 56°51' E 016°33'3 6.4
2019-Aug-14 20:30N 56°48' E 016°31'4 6.1
2019-Aug-14 19:55N 56°45' E 016°29'2 5.5
2019-Aug-14 19:30N 56°43' E 016°27'2 3.9
2019-Aug-14 18:59N 56°42' E 016°24'2 4.0
2019-Aug-14 18:30N 56°40' E 016°23'  

Dump ship's entire track history